Pine Springs, Minnesota
Current Conditions -  °F | °C
As of 8:10 AM on Saturday 20 Dec 2014 (Local Time) from K21D Reporting Station
Haze Haze  
Wind Chill: 23°   Ceiling: 1000
Heat Index: 30°   Visibility: 5mi
Dew Point: 28°   Wind: 7mph
Humidity: 93%   Direction: 160°SSE
Pressure: 30.17"   Gusts: NA
Location:  44.9915°N, 92.9659°W
Report Text: K21D 201410Z AUTO 16006KT 5SM BR OVC010 M01/M02 A3017 RMK AO2
Loading
Personal Weather Stations






























Interactive Weather Map New forecast layout! Learn more

10-Day Weather Forecast

Advertisements
Track Severe Weather on mobile